createdAt,value
2019-02-28T00:02:01.334Z,100865.39
2019-02-28T00:04:31.896Z,100854.52
2019-02-28T00:06:59.500Z,100854.23
2019-02-28T00:09:33.734Z,100852.23
2019-02-28T00:12:04.697Z,100855.36
2019-02-28T00:14:35.557Z,100837.23
2019-02-28T00:17:06.204Z,100829.27
2019-02-28T00:19:39.877Z,100830.36
2019-02-28T00:22:11.333Z,100829.59
2019-02-28T00:24:42.432Z,100825.70
2019-02-28T00:27:13.159Z,100821.42
2019-02-28T00:29:43.737Z,100808.28
2019-02-28T00:32:14.031Z,100809.61
2019-02-28T00:34:44.446Z,100794.98
2019-02-28T00:37:15.080Z,100788.88
2019-02-28T00:39:45.652Z,100782.88
2019-02-28T00:42:17.695Z,100776.90
2019-02-28T00:44:48.113Z,100775.72
2019-02-28T00:47:18.465Z,100771.53
2019-02-28T00:49:48.852Z,100770.77
2019-02-28T00:52:19.421Z,100762.64
2019-02-28T00:54:49.645Z,100764.92
2019-02-28T00:57:24.690Z,100759.79
2019-02-28T00:59:55.157Z,100746.37
2019-02-28T01:02:25.650Z,100750.44
2019-02-28T01:04:56.067Z,100743.89
2019-02-28T01:07:28.107Z,100738.20
2019-02-28T01:10:01.507Z,100748.43
2019-02-28T01:12:32.133Z,100752.50
2019-02-28T01:15:07.138Z,100734.54
2019-02-28T01:17:38.194Z,100731.50
2019-02-28T01:20:15.018Z,100735.57
2019-02-28T01:22:45.121Z,100734.03
2019-02-28T01:25:15.853Z,100741.14
2019-02-28T01:27:48.010Z,100741.23
2019-02-28T01:30:18.632Z,100738.63
2019-02-28T01:32:50.853Z,100744.58
2019-02-28T01:35:21.166Z,100750.53
2019-02-28T01:37:52.404Z,100744.45
2019-02-28T01:40:23.208Z,100738.34
2019-02-28T01:42:54.985Z,100745.54
2019-02-28T01:45:25.330Z,100744.55
2019-02-28T01:47:55.622Z,100738.92
2019-02-28T01:50:29.694Z,100731.05
2019-02-28T01:53:01.165Z,100718.44
2019-02-28T01:55:31.486Z,100737.08
2019-02-28T01:58:01.806Z,100719.22
2019-02-28T02:00:32.122Z,100716.73
2019-02-28T02:03:02.729Z,100719.56
2019-02-28T02:05:33.165Z,100714.64
2019-02-28T02:08:06.471Z,100707.16
2019-02-28T02:10:35.413Z,100716.91
2019-02-28T02:13:05.748Z,100705.50
2019-02-28T02:15:36.077Z,100708.48
2019-02-28T02:18:09.336Z,100704.43
2019-02-28T02:20:38.454Z,100705.84
2019-02-28T02:23:08.726Z,100709.56
2019-02-28T02:25:38.972Z,100712.56
2019-02-28T02:28:09.581Z,100708.33
2019-02-28T02:30:39.955Z,100715.52
2019-02-28T02:33:14.301Z,100707.73
2019-02-28T02:35:43.556Z,100708.03
2019-02-28T02:38:13.937Z,100697.60
2019-02-28T02:40:44.307Z,100695.25
2019-02-28T02:43:14.693Z,100686.61
2019-02-28T02:45:45.023Z,100682.47
2019-02-28T02:48:15.221Z,100682.94
2019-02-28T02:50:45.503Z,100679.18
2019-02-28T02:53:15.963Z,100670.84
2019-02-28T02:55:46.156Z,100663.92
2019-02-28T02:58:16.951Z,100652.86
2019-02-28T03:00:51.190Z,100652.94
2019-02-28T03:03:19.073Z,100650.37
2019-02-28T03:05:50.194Z,100657.38
2019-02-28T03:08:20.850Z,100648.50
2019-02-28T03:10:53.012Z,100652.09
2019-02-28T03:13:23.399Z,100650.51
2019-02-28T03:15:53.621Z,100645.69
2019-02-28T03:18:23.843Z,100644.61
2019-02-28T03:20:54.391Z,100646.48
2019-02-28T03:23:24.643Z,100649.27
2019-02-28T03:25:54.875Z,100647.17
2019-02-28T03:28:31.435Z,100659.25
2019-02-28T03:30:57.451Z,100648.78
2019-02-28T03:33:28.927Z,100645.28
2019-02-28T03:35:59.495Z,100644.98
2019-02-28T03:38:30.255Z,100648.56
2019-02-28T03:41:00.811Z,100638.05
2019-02-28T03:43:31.011Z,100646.55
2019-02-28T03:46:01.500Z,100643.05
2019-02-28T03:48:35.948Z,100628.87
2019-02-28T03:51:03.781Z,100638.14
2019-02-28T03:53:34.285Z,100630.03
2019-02-28T03:56:04.576Z,100638.83
2019-02-28T03:58:41.755Z,100640.63
2019-02-28T04:01:09.403Z,100642.02
2019-02-28T04:03:38.770Z,100629.80
2019-02-28T04:06:09.203Z,100619.81
2019-02-28T04:08:39.940Z,100614.22
2019-02-28T04:11:10.550Z,100608.15
2019-02-28T04:13:40.785Z,100611.73
2019-02-28T04:16:11.115Z,100608.70
2019-02-28T04:18:46.207Z,100608.62
2019-02-28T04:21:13.373Z,100606.83
2019-02-28T04:23:43.830Z,100593.20
2019-02-28T04:26:14.059Z,100585.73
2019-02-28T04:28:44.286Z,100582.78
2019-02-28T04:31:18.334Z,100575.36
2019-02-28T04:33:46.716Z,100563.06
2019-02-28T04:36:16.951Z,100578.39
2019-02-28T04:38:47.234Z,100581.04
2019-02-28T04:41:17.501Z,100587.99
2019-02-28T04:43:47.747Z,100598.50
2019-02-28T04:46:18.109Z,100600.98
2019-02-28T04:48:49.179Z,100595.22
2019-02-28T04:51:19.562Z,100598.64
2019-02-28T04:53:52.512Z,100599.75
2019-02-28T04:56:22.132Z,100588.69
2019-02-28T04:58:52.710Z,100585.66
2019-02-28T05:01:23.339Z,100575.92
2019-02-28T05:03:54.396Z,100574.12
2019-02-28T05:06:24.958Z,100573.11
2019-02-28T05:08:55.166Z,100580.11
2019-02-28T05:11:27.341Z,100578.79
2019-02-28T05:13:57.773Z,100586.17
2019-02-28T05:16:28.147Z,100585.41
2019-02-28T05:19:01.573Z,100588.99
2019-02-28T05:21:30.871Z,100598.56
2019-02-28T05:24:01.187Z,100617.90
2019-02-28T05:26:31.595Z,100622.56
2019-02-28T05:29:01.921Z,100607.36
2019-02-28T05:31:32.684Z,100614.70
2019-02-28T05:34:03.052Z,100604.33
2019-02-28T05:36:34.655Z,100611.72
2019-02-28T05:39:06.497Z,100612.11
2019-02-28T05:41:36.740Z,100608.69
2019-02-28T05:44:07.469Z,100609.70
2019-02-28T05:46:37.807Z,100606.25
2019-02-28T05:49:08.979Z,100610.70
2019-02-28T05:51:40.234Z,100599.72
2019-02-28T05:54:15.941Z,100587.72
2019-02-28T05:56:58.443Z,100592.11
2019-02-28T05:59:29.800Z,100614.53
2019-02-28T06:02:00.620Z,100614.45
2019-02-28T06:04:45.487Z,100614.38
2019-02-28T06:07:16.160Z,100609.33
2019-02-28T06:09:48.712Z,100600.27
2019-02-28T06:12:19.675Z,100602.62
2019-02-28T06:14:50.161Z,100603.47
2019-02-28T06:17:21.885Z,100600.95
2019-02-28T06:19:53.247Z,100608.13
2019-02-28T06:22:25.297Z,100607.66
2019-02-28T06:24:59.467Z,100604.46
2019-02-28T06:27:40.908Z,100610.95
2019-02-28T06:30:15.092Z,100609.16
2019-02-28T06:32:45.532Z,100618.04
2019-02-28T06:35:17.695Z,100617.41
2019-02-28T06:37:47.735Z,100621.77
2019-02-28T06:40:18.115Z,100641.63
2019-02-28T06:42:48.491Z,100636.11
2019-02-28T06:45:19.324Z,100629.79
2019-02-28T06:47:50.247Z,100621.08
2019-02-28T06:50:20.541Z,100634.15
2019-02-28T06:52:50.849Z,100640.77
2019-02-28T06:55:24.059Z,100651.15
2019-02-28T06:57:54.309Z,100652.22
2019-02-28T07:00:25.581Z,100645.71
2019-02-28T07:02:56.602Z,100650.93
2019-02-28T07:05:38.878Z,100649.52
2019-02-28T07:08:12.961Z,100653.02
2019-02-28T07:10:51.803Z,100650.53
2019-02-28T07:13:25.947Z,100638.83
2019-02-28T07:16:00.020Z,100635.79
2019-02-28T07:18:30.559Z,100645.66
2019-02-28T07:21:01.133Z,100654.33
2019-02-28T07:23:35.873Z,100662.37
2019-02-28T07:26:13.464Z,100657.66
2019-02-28T07:28:45.314Z,100643.85
2019-02-28T07:31:15.633Z,100652.58
2019-02-28T07:33:45.990Z,100660.77
2019-02-28T07:36:16.344Z,100656.53
2019-02-28T07:38:46.567Z,100647.03
2019-02-28T07:41:16.898Z,100655.19
2019-02-28T07:43:47.462Z,100656.22
2019-02-28T07:46:17.792Z,100658.95
2019-02-28T07:48:48.076Z,100653.66
2019-02-28T07:51:22.723Z,100653.09
2019-02-28T07:53:52.870Z,100655.26
2019-02-28T07:56:23.933Z,100652.43
2019-02-28T07:58:54.309Z,100652.70
2019-02-28T08:01:27.758Z,100663.66
2019-02-28T08:03:56.813Z,100657.23
2019-02-28T08:06:28.533Z,100657.23
2019-02-28T08:09:01.763Z,100662.37
2019-02-28T08:11:31.371Z,100656.83
2019-02-28T08:14:02.204Z,100659.89
2019-02-28T08:16:34.055Z,100667.23
2019-02-28T08:19:05.267Z,100666.48
2019-02-28T08:21:36.000Z,100680.28
2019-02-28T08:24:06.434Z,100681.95
2019-02-28T08:26:36.752Z,100680.25
2019-02-28T08:29:09.123Z,100682.52
2019-02-28T08:31:39.160Z,100681.58
2019-02-28T08:34:09.453Z,100666.55
2019-02-28T08:36:39.660Z,100671.91
2019-02-28T08:39:16.224Z,100676.36
2019-02-28T08:41:46.757Z,100695.02
2019-02-28T08:44:22.793Z,100706.62
2019-02-28T08:46:49.226Z,100710.43
2019-02-28T08:49:20.066Z,100718.73
2019-02-28T08:51:50.637Z,100725.01
2019-02-28T08:54:26.265Z,100714.77
2019-02-28T08:56:53.097Z,100716.81
2019-02-28T08:59:23.450Z,100722.77
2019-02-28T09:01:53.841Z,100722.38
2019-02-28T09:04:24.099Z,100731.14
2019-02-28T09:06:56.019Z,100724.91
2019-02-28T09:09:31.638Z,100728.79
2019-02-28T09:12:01.104Z,100736.23
2019-02-28T09:14:31.307Z,100733.55
2019-02-28T09:17:07.124Z,100734.48
2019-02-28T09:19:40.730Z,100732.39
2019-02-28T09:22:11.994Z,100744.40
2019-02-28T09:24:43.664Z,100752.70
2019-02-28T09:27:18.664Z,100754.58
2019-02-28T09:29:48.933Z,100749.66
2019-02-28T09:32:19.436Z,100743.69
2019-02-28T09:34:49.714Z,100740.02
2019-02-28T09:37:20.009Z,100743.83
2019-02-28T09:39:51.257Z,100751.75
2019-02-28T09:42:22.387Z,100739.98
2019-02-28T09:44:52.831Z,100742.34
2019-02-28T09:47:26.744Z,100749.08
2019-02-28T09:49:58.089Z,100751.38
2019-02-28T09:52:29.749Z,100739.11
2019-02-28T09:54:59.986Z,100729.41
2019-02-28T09:57:36.962Z,100729.99
2019-02-28T10:00:11.671Z,100726.95
2019-02-28T10:02:43.345Z,100722.16
2019-02-28T10:05:11.953Z,100709.94
2019-02-28T10:07:42.363Z,100711.00
2019-02-28T10:10:17.410Z,100720.92
2019-02-28T10:12:48.024Z,100726.27
2019-02-28T10:15:22.091Z,100720.45
2019-02-28T10:17:56.960Z,100726.13
2019-02-28T10:20:30.877Z,100719.00
2019-02-28T10:23:02.815Z,100715.20
2019-02-28T10:25:43.291Z,100717.43
2019-02-28T10:28:27.736Z,100728.90
2019-02-28T10:31:14.441Z,100724.42
2019-02-28T10:33:56.319Z,100718.20
2019-02-28T10:36:34.176Z,100721.06
2019-02-28T10:39:08.949Z,100734.05
2019-02-28T10:41:38.257Z,100732.03
2019-02-28T10:44:08.528Z,100717.92
2019-02-28T10:46:39.254Z,100720.85
2019-02-28T10:49:09.761Z,100720.39
2019-02-28T10:51:39.939Z,100723.33
2019-02-28T10:54:11.240Z,100720.52
2019-02-28T10:56:43.423Z,100721.73
2019-02-28T10:59:17.100Z,100719.33
2019-02-28T11:01:47.349Z,100720.30
2019-02-28T11:04:23.487Z,100727.64
2019-02-28T11:06:54.962Z,100726.59
2019-02-28T11:09:25.648Z,100717.94
2019-02-28T11:11:56.814Z,100725.37
2019-02-28T11:14:27.156Z,100712.11
2019-02-28T11:16:59.522Z,100704.91
2019-02-28T11:19:30.226Z,100706.85
2019-02-28T11:22:01.545Z,100715.70
2019-02-28T11:24:32.638Z,100732.06
2019-02-28T11:27:03.090Z,100740.90
2019-02-28T11:29:35.453Z,100733.23
2019-02-28T11:32:07.170Z,100726.73
2019-02-28T11:34:37.981Z,100731.61
2019-02-28T11:37:09.895Z,100725.05
2019-02-28T11:39:40.120Z,100728.75
2019-02-28T11:43:08.306Z,100741.31
2019-02-28T11:45:18.604Z,100734.10
2019-02-28T11:47:57.956Z,100740.28
2019-02-28T11:50:29.853Z,100755.61
2019-02-28T11:53:04.953Z,100741.09
2019-02-28T11:55:32.859Z,100749.40
2019-02-28T11:58:03.121Z,100739.71
2019-02-28T12:00:35.651Z,100742.37
2019-02-28T12:03:05.939Z,100737.78
2019-02-28T12:05:36.417Z,100741.34
2019-02-28T12:08:10.466Z,100746.30
2019-02-28T12:10:39.074Z,100744.38
2019-02-28T12:13:09.567Z,100738.22
2019-02-28T12:15:40.113Z,100737.94
2019-02-28T12:18:10.501Z,100733.52
2019-02-28T12:20:40.904Z,100737.87
2019-02-28T12:23:11.574Z,100734.41
2019-02-28T12:25:42.924Z,100738.50
2019-02-28T12:28:13.955Z,100727.02
2019-02-28T12:30:44.868Z,100725.22
2019-02-28T12:33:18.624Z,100725.80
2019-02-28T12:35:47.387Z,100723.58
2019-02-28T12:38:17.910Z,100715.23
2019-02-28T12:40:49.597Z,100716.91
2019-02-28T12:43:19.994Z,100716.60
2019-02-28T12:45:50.238Z,100723.34
2019-02-28T12:48:21.051Z,100720.65
2019-02-28T12:50:51.329Z,100722.11
2019-02-28T12:53:25.264Z,100717.16
2019-02-28T12:55:56.178Z,100711.50
2019-02-28T12:58:36.484Z,100698.75
2019-02-28T13:01:00.039Z,100708.72
2019-02-28T13:03:30.736Z,100696.99
2019-02-28T13:06:01.619Z,100707.98
2019-02-28T13:08:32.150Z,100696.08
2019-02-28T13:11:04.346Z,100691.66
2019-02-28T13:13:37.511Z,100691.05
2019-02-28T13:16:07.789Z,100677.53
2019-02-28T13:18:39.489Z,100681.94
2019-02-28T13:21:11.712Z,100681.94
2019-02-28T13:23:42.406Z,100683.83
2019-02-28T13:26:12.689Z,100684.48
2019-02-28T13:28:42.993Z,100689.20
2019-02-28T13:31:13.391Z,100694.40
2019-02-28T13:33:43.731Z,100685.91
2019-02-28T13:36:18.487Z,100688.03
2019-02-28T13:38:49.318Z,100687.27
2019-02-28T13:41:22.260Z,100684.48
2019-02-28T13:43:51.309Z,100684.96
2019-02-28T13:46:23.318Z,100691.05
2019-02-28T13:48:54.370Z,100682.78
2019-02-28T13:51:24.749Z,100676.30
2019-02-28T13:53:55.389Z,100672.58
2019-02-28T13:56:29.103Z,100680.84
2019-02-28T13:58:58.683Z,100689.84
2019-02-28T14:01:29.098Z,100689.55
2019-02-28T14:03:59.534Z,100679.38
2019-02-28T14:06:30.072Z,100690.48
2019-02-28T14:09:00.471Z,100690.48
2019-02-28T14:11:32.553Z,100698.81
2019-02-28T14:14:06.356Z,100686.59
2019-02-28T14:16:35.145Z,100680.67
2019-02-28T14:19:05.723Z,100684.60
2019-02-28T14:21:37.063Z,100689.52
2019-02-28T14:24:08.472Z,100691.48
2019-02-28T14:26:42.744Z,100690.45
2019-02-28T14:29:11.726Z,100696.11
2019-02-28T14:31:42.202Z,100695.88
2019-02-28T14:34:12.846Z,100701.22
2019-02-28T14:36:45.102Z,100695.02
2019-02-28T14:39:15.550Z,100693.44
2019-02-28T14:41:46.974Z,100698.30
2019-02-28T14:44:18.088Z,100686.81
2019-02-28T14:46:49.901Z,100683.91
2019-02-28T14:49:21.107Z,100681.78
2019-02-28T14:51:51.833Z,100682.87
2019-02-28T14:54:24.696Z,100692.89
2019-02-28T14:56:55.222Z,100690.69
2019-02-28T14:59:28.599Z,100689.55
2019-02-28T15:01:58.561Z,100677.62
2019-02-28T15:04:29.009Z,100674.77
2019-02-28T15:07:03.027Z,100673.52
2019-02-28T15:09:32.102Z,100675.91
2019-02-28T15:12:02.364Z,100675.16
2019-02-28T15:14:33.040Z,100673.09
2019-02-28T15:17:06.831Z,100680.80
2019-02-28T15:19:35.319Z,100677.05
2019-02-28T15:22:06.235Z,100678.66
2019-02-28T15:24:36.853Z,100685.25
2019-02-28T15:27:07.372Z,100690.14
2019-02-28T15:29:37.897Z,100682.21
2019-02-28T15:32:08.194Z,100676.98
2019-02-28T15:34:41.120Z,100689.22
2019-02-28T15:37:11.078Z,100683.94
2019-02-28T15:39:41.404Z,100692.76
2019-02-28T15:42:12.044Z,100697.44
2019-02-28T15:44:42.332Z,100696.48
2019-02-28T15:47:12.594Z,100702.26
2019-02-28T15:49:43.519Z,100700.70
2019-02-28T15:52:16.356Z,100693.02
2019-02-28T15:54:46.638Z,100693.27
2019-02-28T15:57:17.310Z,100703.48
2019-02-28T15:59:49.764Z,100706.47
2019-02-28T16:02:20.745Z,100719.27
2019-02-28T16:04:51.442Z,100710.84
2019-02-28T16:07:22.543Z,100712.83
2019-02-28T16:09:54.148Z,100715.72
2019-02-28T16:12:25.482Z,100706.25
2019-02-28T16:14:56.053Z,100711.41
2019-02-28T16:17:26.485Z,100713.70
2019-02-28T16:19:57.000Z,100702.31
2019-02-28T16:22:27.824Z,100697.30
2019-02-28T16:24:58.489Z,100697.41
2019-02-28T16:27:32.277Z,100703.14
2019-02-28T16:30:02.434Z,100697.44
2019-02-28T16:32:33.247Z,100691.35
2019-02-28T16:35:04.263Z,100691.92
2019-02-28T16:37:35.846Z,100685.57
2019-02-28T16:40:07.781Z,100679.39
2019-02-28T16:42:38.111Z,100688.69
2019-02-28T16:45:13.014Z,100680.73
2019-02-28T16:47:43.732Z,100688.46
2019-02-28T16:50:18.934Z,100692.55
2019-02-28T16:52:50.144Z,100697.66
2019-02-28T16:55:20.398Z,100691.94
2019-02-28T16:57:52.201Z,100694.56
2019-02-28T17:00:22.565Z,100684.95
2019-02-28T17:02:53.122Z,100683.33
2019-02-28T17:05:27.939Z,100680.11
2019-02-28T17:07:56.105Z,100681.41
2019-02-28T17:10:34.345Z,100694.94
2019-02-28T17:13:30.495Z,100696.92
2019-02-28T17:16:10.303Z,100696.26
2019-02-28T17:18:41.017Z,100698.22
2019-02-28T17:21:16.887Z,100696.31
2019-02-28T17:23:45.252Z,100700.34
2019-02-28T17:26:36.163Z,100693.66
2019-02-28T17:29:14.775Z,100699.90
2019-02-28T17:31:48.287Z,100694.34
2019-02-28T17:34:24.493Z,100696.56
2019-02-28T17:36:54.165Z,100691.20
2019-02-28T17:39:24.758Z,100691.46
2019-02-28T17:41:55.316Z,100695.59
2019-02-28T17:44:41.646Z,100697.56
2019-02-28T17:47:44.751Z,100701.34
2019-02-28T17:50:39.309Z,100702.81
2019-02-28T17:53:57.967Z,100699.86
2019-02-28T17:56:50.989Z,100699.36
2019-02-28T17:59:45.242Z,100703.09
2019-02-28T18:02:59.437Z,100702.13
2019-02-28T18:06:08.827Z,100701.70
2019-02-28T18:09:14.146Z,100706.24
2019-02-28T18:12:18.951Z,100698.45
2019-02-28T18:15:09.787Z,100690.77
2019-02-28T18:18:17.950Z,100700.83
2019-02-28T18:21:25.066Z,100702.08
2019-02-28T18:24:34.773Z,100705.13
2019-02-28T18:27:21.622Z,100703.88
2019-02-28T18:30:38.614Z,100703.58
2019-02-28T18:33:10.241Z,100712.39
2019-02-28T18:35:41.432Z,100704.22
2019-02-28T18:38:11.663Z,100702.89
2019-02-28T18:40:43.012Z,100703.58
2019-02-28T18:43:13.661Z,100701.23
2019-02-28T18:45:43.970Z,100703.80
2019-02-28T18:48:17.832Z,100707.72
2019-02-28T18:50:46.913Z,100702.80
2019-02-28T18:53:17.722Z,100696.77
2019-02-28T18:55:48.562Z,100684.45
2019-02-28T18:58:19.393Z,100686.17
2019-02-28T19:00:49.616Z,100678.13
2019-02-28T19:03:20.162Z,100684.15
2019-02-28T19:05:50.829Z,100687.39
2019-02-28T19:08:21.318Z,100689.11
2019-02-28T19:10:51.946Z,100695.73
2019-02-28T19:13:22.632Z,100701.98
2019-02-28T19:15:53.209Z,100710.32
2019-02-28T19:18:23.442Z,100720.92
2019-02-28T19:20:55.665Z,100715.02
2019-02-28T19:23:26.192Z,100707.38
2019-02-28T19:25:57.008Z,100703.19
2019-02-28T19:28:27.207Z,100701.23
2019-02-28T19:30:57.719Z,100700.63
2019-02-28T19:33:27.937Z,100709.61
2019-02-28T19:35:58.613Z,100708.33
2019-02-28T19:38:28.840Z,100711.79
2019-02-28T19:40:59.163Z,100722.39
2019-02-28T19:43:29.747Z,100720.51
2019-02-28T19:46:00.131Z,100717.86
2019-02-28T19:48:30.747Z,100720.21
2019-02-28T19:51:02.256Z,100720.67
2019-02-28T19:53:32.422Z,100723.72
2019-02-28T19:56:03.653Z,100735.09
2019-02-28T19:58:33.859Z,100734.79
2019-02-28T20:01:04.277Z,100727.69
2019-02-28T20:03:34.585Z,100730.86
2019-02-28T20:06:04.893Z,100727.69
2019-02-28T20:08:35.569Z,100729.06
2019-02-28T20:11:06.214Z,100732.35
2019-02-28T20:13:36.400Z,100739.06
2019-02-28T20:16:06.718Z,100743.67
2019-02-28T20:18:37.052Z,100738.06
2019-02-28T20:21:07.353Z,100742.17
2019-02-28T20:23:37.689Z,100735.30
2019-02-28T20:26:08.118Z,100729.99
2019-02-28T20:28:38.612Z,100723.84
2019-02-28T20:31:09.207Z,100728.44
2019-02-28T20:33:39.754Z,100731.30
2019-02-28T20:36:10.078Z,100732.33
2019-02-28T20:38:40.592Z,100725.16
2019-02-28T20:41:11.217Z,100727.97
2019-02-28T20:43:41.657Z,100725.89
2019-02-28T20:46:15.226Z,100732.34
2019-02-28T20:48:45.696Z,100730.97
2019-02-28T20:51:16.193Z,100738.45
2019-02-28T20:53:46.740Z,100733.54
2019-02-28T20:56:17.086Z,100734.48
2019-02-28T20:58:47.470Z,100734.35
2019-02-28T21:01:17.993Z,100730.67
2019-02-28T21:03:48.313Z,100726.56
2019-02-28T21:06:18.674Z,100728.06
2019-02-28T21:08:49.019Z,100729.78
2019-02-28T21:11:19.403Z,100728.06
2019-02-28T21:13:49.688Z,100735.16
2019-02-28T21:16:19.951Z,100741.23
2019-02-28T21:18:50.744Z,100747.56
2019-02-28T21:21:21.071Z,100738.13
2019-02-28T21:23:51.381Z,100733.92
2019-02-28T21:26:21.635Z,100733.83
2019-02-28T21:28:51.925Z,100733.58
2019-02-28T21:31:22.105Z,100733.09
2019-02-28T21:33:52.818Z,100729.22
2019-02-28T21:36:23.480Z,100735.37
2019-02-28T21:38:54.386Z,100729.70
2019-02-28T21:41:24.923Z,100733.92
2019-02-28T21:43:55.262Z,100723.33
2019-02-28T21:46:26.059Z,100721.23
2019-02-28T21:48:56.301Z,100720.12
2019-02-28T21:51:26.879Z,100720.34
2019-02-28T21:53:58.302Z,100712.56
2019-02-28T21:56:28.889Z,100709.74
2019-02-28T21:58:59.062Z,100710.69
2019-02-28T22:01:29.429Z,100710.16
2019-02-28T22:03:59.763Z,100705.63
2019-02-28T22:06:32.261Z,100703.59
2019-02-28T22:09:02.901Z,100715.98
2019-02-28T22:11:33.457Z,100712.34
2019-02-28T22:14:03.726Z,100713.28
2019-02-28T22:16:34.218Z,100721.61
2019-02-28T22:19:04.886Z,100724.81
2019-02-28T22:21:35.141Z,100717.00
2019-02-28T22:24:05.716Z,100718.70
2019-02-28T22:26:35.986Z,100719.69
2019-02-28T22:29:06.368Z,100716.05
2019-02-28T22:31:43.804Z,100713.01
2019-02-28T22:34:30.934Z,100717.20
2019-02-28T22:37:02.478Z,100712.63
2019-02-28T22:39:33.260Z,100713.99
2019-02-28T22:42:03.676Z,100711.69
2019-02-28T22:44:34.589Z,100719.08
2019-02-28T22:47:05.214Z,100722.42
2019-02-28T22:49:35.624Z,100720.33
2019-02-28T22:52:06.420Z,100710.42
2019-02-28T22:54:36.597Z,100710.89
2019-02-28T22:57:07.127Z,100703.88
2019-02-28T22:59:37.747Z,100695.84
2019-02-28T23:02:08.319Z,100690.25
2019-02-28T23:04:38.661Z,100692.81
2019-02-28T23:07:08.865Z,100693.75
2019-02-28T23:09:39.040Z,100687.67
2019-02-28T23:12:09.587Z,100688.78
2019-02-28T23:14:40.045Z,100689.00
2019-02-28T23:17:10.544Z,100682.22
2019-02-28T23:19:40.849Z,100684.40
2019-02-28T23:22:11.152Z,100684.09
2019-02-28T23:24:41.292Z,100685.72
2019-02-28T23:27:16.325Z,100677.25
2019-02-28T23:30:25.972Z,100680.19
2019-02-28T23:33:02.144Z,100676.91
2019-02-28T23:35:35.315Z,100683.15
2019-02-28T23:38:05.472Z,100686.57
2019-02-28T23:40:35.862Z,100685.20
2019-02-28T23:43:06.124Z,100691.02
2019-02-28T23:45:36.629Z,100683.78
2019-02-28T23:48:06.858Z,100680.66
2019-02-28T23:50:37.223Z,100679.50
2019-02-28T23:53:07.634Z,100677.33
2019-02-28T23:55:37.881Z,100674.52
2019-02-28T23:58:08.094Z,100671.95
